sensor_id;sensor_type;location;lat;lon;timestamp;pressure;altitude;pressure_sealevel;temperature;humidity
81299;BME280;70766;53.170;18.160;2023-11-19T00:01:40;101869.48;;;-0.62;100.00
81299;BME280;70766;53.170;18.160;2023-11-19T00:04:10;101868.70;;;-0.68;100.00
81299;BME280;70766;53.170;18.160;2023-11-19T00:06:43;101862.61;;;-0.73;100.00
81299;BME280;70766;53.170;18.160;2023-11-19T00:09:11;101860.95;;;-0.78;100.00
81299;BME280;70766;53.170;18.160;2023-11-19T00:11:43;101856.36;;;-0.82;100.00
81299;BME280;70766;53.170;18.160;2023-11-19T00:14:21;101854.05;;;-0.86;100.00
81299;BME280;70766;53.170;18.160;2023-11-19T00:16:50;101850.52;;;-0.90;100.00
81299;BME280;70766;53.170;18.160;2023-11-19T00:19:19;101843.97;;;-0.94;100.00
81299;BME280;70766;53.170;18.160;2023-11-19T00:21:49;101839.77;;;-0.96;100.00
81299;BME280;70766;53.170;18.160;2023-11-19T00:24:20;101840.98;;;-1.00;100.00
81299;BME280;70766;53.170;18.160;2023-11-19T00:26:53;101837.68;;;-1.07;100.00
81299;BME280;70766;53.170;18.160;2023-11-19T00:29:21;101837.73;;;-1.14;100.00
81299;BME280;70766;53.170;18.160;2023-11-19T00:31:50;101838.45;;;-1.20;100.00
81299;BME280;70766;53.170;18.160;2023-11-19T00:34:19;101843.25;;;-1.28;100.00
81299;BME280;70766;53.170;18.160;2023-11-19T00:36:49;101844.33;;;-1.32;100.00
81299;BME280;70766;53.170;18.160;2023-11-19T00:39:17;101833.05;;;-1.36;100.00
81299;BME280;70766;53.170;18.160;2023-11-19T00:41:45;101832.45;;;-1.42;100.00
81299;BME280;70766;53.170;18.160;2023-11-19T00:44:14;101829.92;;;-1.50;100.00
81299;BME280;70766;53.170;18.160;2023-11-19T00:46:42;101823.62;;;-1.57;100.00
81299;BME280;70766;53.170;18.160;2023-11-19T00:49:10;101817.54;;;-1.62;100.00
81299;BME280;70766;53.170;18.160;2023-11-19T00:51:39;101817.20;;;-1.68;100.00
81299;BME280;70766;53.170;18.160;2023-11-19T00:54:07;101807.73;;;-1.71;100.00
81299;BME280;70766;53.170;18.160;2023-11-19T00:56:35;101797.89;;;-1.72;100.00
81299;BME280;70766;53.170;18.160;2023-11-19T00:59:05;101793.39;;;-1.73;100.00
81299;BME280;70766;53.170;18.160;2023-11-19T01:01:33;101785.55;;;-1.74;100.00
81299;BME280;70766;53.170;18.160;2023-11-19T01:04:01;101786.38;;;-1.73;100.00
81299;BME280;70766;53.170;18.160;2023-11-19T01:06:30;101779.36;;;-1.75;100.00
81299;BME280;70766;53.170;18.160;2023-11-19T01:08:58;101775.54;;;-1.78;100.00
81299;BME280;70766;53.170;18.160;2023-11-19T01:11:26;101778.30;;;-1.80;100.00
81299;BME280;70766;53.170;18.160;2023-11-19T01:13:56;101777.96;;;-1.80;100.00
81299;BME280;70766;53.170;18.160;2023-11-19T01:16:25;101776.98;;;-1.81;100.00
81299;BME280;70766;53.170;18.160;2023-11-19T01:18:54;101778.32;;;-1.84;100.00
81299;BME280;70766;53.170;18.160;2023-11-19T01:21:39;101766.48;;;-1.90;100.00
81299;BME280;70766;53.170;18.160;2023-11-19T01:24:07;101760.48;;;-1.96;100.00
81299;BME280;70766;53.170;18.160;2023-11-19T01:26:38;101757.75;;;-1.99;100.00
81299;BME280;70766;53.170;18.160;2023-11-19T01:29:06;101755.33;;;-2.04;100.00
81299;BME280;70766;53.170;18.160;2023-11-19T01:31:34;101757.05;;;-2.08;100.00
81299;BME280;70766;53.170;18.160;2023-11-19T01:34:02;101760.09;;;-2.13;100.00
81299;BME280;70766;53.170;18.160;2023-11-19T01:36:30;101754.08;;;-2.15;100.00
81299;BME280;70766;53.170;18.160;2023-11-19T01:38:58;101756.83;;;-2.14;100.00
81299;BME280;70766;53.170;18.160;2023-11-19T01:41:27;101760.45;;;-2.18;100.00
81299;BME280;70766;53.170;18.160;2023-11-19T01:43:55;101753.23;;;-2.22;100.00
81299;BME280;70766;53.170;18.160;2023-11-19T01:46:23;101745.13;;;-2.21;100.00
81299;BME280;70766;53.170;18.160;2023-11-19T01:48:52;101740.59;;;-2.19;100.00
81299;BME280;70766;53.170;18.160;2023-11-19T01:51:22;101734.17;;;-2.18;100.00
81299;BME280;70766;53.170;18.160;2023-11-19T01:53:50;101715.44;;;-2.18;100.00
81299;BME280;70766;53.170;18.160;2023-11-19T01:56:20;101704.91;;;-2.18;100.00
81299;BME280;70766;53.170;18.160;2023-11-19T01:58:51;101701.23;;;-2.20;100.00
81299;BME280;70766;53.170;18.160;2023-11-19T02:01:22;101690.35;;;-2.25;100.00
81299;BME280;70766;53.170;18.160;2023-11-19T02:03:51;101684.43;;;-2.27;100.00
81299;BME280;70766;53.170;18.160;2023-11-19T02:06:20;101681.24;;;-2.29;100.00
81299;BME280;70766;53.170;18.160;2023-11-19T02:08:50;101676.03;;;-2.25;100.00
81299;BME280;70766;53.170;18.160;2023-11-19T02:11:18;101675.11;;;-2.24;100.00
81299;BME280;70766;53.170;18.160;2023-11-19T02:13:46;101671.02;;;-2.26;100.00
81299;BME280;70766;53.170;18.160;2023-11-19T02:16:15;101664.27;;;-2.27;100.00
81299;BME280;70766;53.170;18.160;2023-11-19T02:18:43;101657.04;;;-2.26;100.00
81299;BME280;70766;53.170;18.160;2023-11-19T02:21:11;101664.13;;;-2.25;100.00
81299;BME280;70766;53.170;18.160;2023-11-19T02:23:39;101666.15;;;-2.24;100.00
81299;BME280;70766;53.170;18.160;2023-11-19T02:26:36;101660.81;;;-2.28;100.00
81299;BME280;70766;53.170;18.160;2023-11-19T02:29:07;101655.13;;;-2.29;100.00
81299;BME280;70766;53.170;18.160;2023-11-19T02:31:36;101648.08;;;-2.26;100.00
81299;BME280;70766;53.170;18.160;2023-11-19T02:34:04;101635.77;;;-2.22;100.00
81299;BME280;70766;53.170;18.160;2023-11-19T02:36:33;101627.50;;;-2.19;100.00
81299;BME280;70766;53.170;18.160;2023-11-19T02:39:02;101621.92;;;-2.17;100.00
81299;BME280;70766;53.170;18.160;2023-11-19T02:41:31;101629.37;;;-2.16;100.00
81299;BME280;70766;53.170;18.160;2023-11-19T02:43:59;101628.76;;;-2.13;100.00
81299;BME280;70766;53.170;18.160;2023-11-19T02:46:27;101619.92;;;-2.14;100.00
81299;BME280;70766;53.170;18.160;2023-11-19T02:48:55;101605.05;;;-2.14;100.00
81299;BME280;70766;53.170;18.160;2023-11-19T02:51:24;101600.98;;;-2.12;100.00
81299;BME280;70766;53.170;18.160;2023-11-19T02:53:52;101593.77;;;-2.10;100.00
81299;BME280;70766;53.170;18.160;2023-11-19T02:56:20;101590.63;;;-2.07;100.00
81299;BME280;70766;53.170;18.160;2023-11-19T02:58:54;101588.48;;;-2.07;100.00
81299;BME280;70766;53.170;18.160;2023-11-19T03:01:24;101589.64;;;-2.08;100.00
81299;BME280;70766;53.170;18.160;2023-11-19T03:04:00;101581.46;;;-2.09;100.00
81299;BME280;70766;53.170;18.160;2023-11-19T03:06:30;101571.60;;;-2.08;100.00
81299;BME280;70766;53.170;18.160;2023-11-19T03:09:00;101557.41;;;-2.07;100.00
81299;BME280;70766;53.170;18.160;2023-11-19T03:11:33;101550.33;;;-2.01;100.00
81299;BME280;70766;53.170;18.160;2023-11-19T03:14:01;101553.13;;;-1.97;100.00
81299;BME280;70766;53.170;18.160;2023-11-19T03:16:31;101551.55;;;-1.95;100.00
81299;BME280;70766;53.170;18.160;2023-11-19T03:19:00;101552.27;;;-1.93;100.00
81299;BME280;70766;53.170;18.160;2023-11-19T03:21:29;101546.05;;;-1.88;100.00
81299;BME280;70766;53.170;18.160;2023-11-19T03:23:58;101542.98;;;-1.85;100.00
81299;BME280;70766;53.170;18.160;2023-11-19T03:26:29;101536.39;;;-1.82;100.00
81299;BME280;70766;53.170;18.160;2023-11-19T03:28:57;101529.81;;;-1.80;100.00
81299;BME280;70766;53.170;18.160;2023-11-19T03:31:26;101516.36;;;-1.77;100.00
81299;BME280;70766;53.170;18.160;2023-11-19T03:33:54;101505.89;;;-1.76;100.00
81299;BME280;70766;53.170;18.160;2023-11-19T03:36:32;101495.55;;;-1.74;100.00
81299;BME280;70766;53.170;18.160;2023-11-19T03:39:00;101482.48;;;-1.72;100.00
81299;BME280;70766;53.170;18.160;2023-11-19T03:41:29;101476.24;;;-1.72;100.00
81299;BME280;70766;53.170;18.160;2023-11-19T03:44:10;101472.60;;;-1.70;100.00
81299;BME280;70766;53.170;18.160;2023-11-19T03:46:39;101467.14;;;-1.70;100.00
81299;BME280;70766;53.170;18.160;2023-11-19T03:49:07;101460.86;;;-1.70;100.00
81299;BME280;70766;53.170;18.160;2023-11-19T03:51:36;101458.77;;;-1.66;100.00
81299;BME280;70766;53.170;18.160;2023-11-19T03:54:04;101459.67;;;-1.64;100.00
81299;BME280;70766;53.170;18.160;2023-11-19T03:56:34;101460.52;;;-1.62;100.00
81299;BME280;70766;53.170;18.160;2023-11-19T03:59:02;101459.23;;;-1.62;100.00
81299;BME280;70766;53.170;18.160;2023-11-19T04:01:30;101454.59;;;-1.59;100.00
81299;BME280;70766;53.170;18.160;2023-11-19T04:03:59;101453.22;;;-1.55;100.00
81299;BME280;70766;53.170;18.160;2023-11-19T04:06:27;101450.64;;;-1.51;100.00
81299;BME280;70766;53.170;18.160;2023-11-19T04:08:58;101445.20;;;-1.47;100.00
81299;BME280;70766;53.170;18.160;2023-11-19T04:11:26;101444.84;;;-1.45;100.00
81299;BME280;70766;53.170;18.160;2023-11-19T04:13:54;101435.58;;;-1.43;100.00
81299;BME280;70766;53.170;18.160;2023-11-19T04:16:27;101432.98;;;-1.42;100.00
81299;BME280;70766;53.170;18.160;2023-11-19T04:18:56;101436.52;;;-1.40;100.00
81299;BME280;70766;53.170;18.160;2023-11-19T04:21:26;101439.14;;;-1.38;100.00
81299;BME280;70766;53.170;18.160;2023-11-19T04:23:55;101430.06;;;-1.36;100.00
81299;BME280;70766;53.170;18.160;2023-11-19T04:26:23;101425.38;;;-1.37;100.00
81299;BME280;70766;53.170;18.160;2023-11-19T04:28:51;101419.89;;;-1.37;100.00
81299;BME280;70766;53.170;18.160;2023-11-19T04:31:20;101408.41;;;-1.36;100.00
81299;BME280;70766;53.170;18.160;2023-11-19T04:33:48;101401.54;;;-1.33;100.00
81299;BME280;70766;53.170;18.160;2023-11-19T04:36:18;101397.23;;;-1.33;100.00
81299;BME280;70766;53.170;18.160;2023-11-19T04:38:47;101400.48;;;-1.29;100.00
81299;BME280;70766;53.170;18.160;2023-11-19T04:41:15;101401.45;;;-1.29;100.00
81299;BME280;70766;53.170;18.160;2023-11-19T04:43:43;101396.77;;;-1.27;100.00
81299;BME280;70766;53.170;18.160;2023-11-19T04:46:11;101395.77;;;-1.26;100.00
81299;BME280;70766;53.170;18.160;2023-11-19T04:48:39;101388.09;;;-1.24;100.00
81299;BME280;70766;53.170;18.160;2023-11-19T04:51:09;101376.67;;;-1.22;100.00
81299;BME280;70766;53.170;18.160;2023-11-19T04:53:40;101372.48;;;-1.21;100.00
81299;BME280;70766;53.170;18.160;2023-11-19T04:56:10;101363.41;;;-1.21;100.00
81299;BME280;70766;53.170;18.160;2023-11-19T04:58:38;101354.59;;;-1.19;100.00
81299;BME280;70766;53.170;18.160;2023-11-19T05:01:13;101348.56;;;-1.20;100.00
81299;BME280;70766;53.170;18.160;2023-11-19T05:03:44;101348.82;;;-1.21;100.00
81299;BME280;70766;53.170;18.160;2023-11-19T05:06:12;101344.70;;;-1.22;100.00
81299;BME280;70766;53.170;18.160;2023-11-19T05:08:40;101339.17;;;-1.23;100.00
81299;BME280;70766;53.170;18.160;2023-11-19T05:11:08;101331.60;;;-1.23;100.00
81299;BME280;70766;53.170;18.160;2023-11-19T05:13:39;101324.20;;;-1.18;100.00
81299;BME280;70766;53.170;18.160;2023-11-19T05:16:08;101316.98;;;-1.16;100.00
81299;BME280;70766;53.170;18.160;2023-11-19T05:18:37;101310.30;;;-1.14;100.00
81299;BME280;70766;53.170;18.160;2023-11-19T05:21:09;101313.33;;;-1.15;100.00
81299;BME280;70766;53.170;18.160;2023-11-19T05:23:37;101312.64;;;-1.13;100.00
81299;BME280;70766;53.170;18.160;2023-11-19T05:26:06;101309.13;;;-1.09;100.00
81299;BME280;70766;53.170;18.160;2023-11-19T05:28:38;101303.82;;;-1.07;100.00
81299;BME280;70766;53.170;18.160;2023-11-19T05:31:07;101301.77;;;-1.06;100.00
81299;BME280;70766;53.170;18.160;2023-11-19T05:33:35;101291.34;;;-1.03;100.00
81299;BME280;70766;53.170;18.160;2023-11-19T05:36:04;101287.48;;;-1.01;100.00
81299;BME280;70766;53.170;18.160;2023-11-19T05:38:32;101283.04;;;-0.98;100.00
81299;BME280;70766;53.170;18.160;2023-11-19T05:41:04;101280.67;;;-0.98;100.00
81299;BME280;70766;53.170;18.160;2023-11-19T05:43:33;101278.46;;;-0.94;100.00
81299;BME280;70766;53.170;18.160;2023-11-19T05:46:01;101280.09;;;-0.93;100.00
81299;BME280;70766;53.170;18.160;2023-11-19T05:48:29;101276.69;;;-0.91;100.00
81299;BME280;70766;53.170;18.160;2023-11-19T05:50:58;101270.98;;;-0.88;100.00
81299;BME280;70766;53.170;18.160;2023-11-19T05:53:26;101272.86;;;-0.87;100.00
81299;BME280;70766;53.170;18.160;2023-11-19T05:55:54;101273.00;;;-0.85;100.00
81299;BME280;70766;53.170;18.160;2023-11-19T05:58:26;101268.78;;;-0.79;100.00
81299;BME280;70766;53.170;18.160;2023-11-19T06:00:57;101267.37;;;-0.75;100.00
81299;BME280;70766;53.170;18.160;2023-11-19T06:03:25;101264.39;;;-0.73;100.00
81299;BME280;70766;53.170;18.160;2023-11-19T06:05:53;101256.02;;;-0.69;100.00
81299;BME280;70766;53.170;18.160;2023-11-19T06:08:22;101252.66;;;-0.65;100.00
81299;BME280;70766;53.170;18.160;2023-11-19T06:10:50;101250.52;;;-0.64;100.00
81299;BME280;70766;53.170;18.160;2023-11-19T06:13:19;101251.54;;;-0.58;100.00
81299;BME280;70766;53.170;18.160;2023-11-19T06:15:51;101246.60;;;-0.62;100.00
81299;BME280;70766;53.170;18.160;2023-11-19T06:18:19;101241.65;;;-0.62;100.00
81299;BME280;70766;53.170;18.160;2023-11-19T06:20:51;101233.55;;;-0.59;100.00
81299;BME280;70766;53.170;18.160;2023-11-19T06:23:19;101229.74;;;-0.58;100.00
81299;BME280;70766;53.170;18.160;2023-11-19T06:25:47;101226.27;;;-0.55;100.00
81299;BME280;70766;53.170;18.160;2023-11-19T06:28:15;101225.42;;;-0.57;100.00
81299;BME280;70766;53.170;18.160;2023-11-19T06:30:44;101219.64;;;-0.55;100.00
81299;BME280;70766;53.170;18.160;2023-11-19T06:33:16;101214.73;;;-0.55;100.00
81299;BME280;70766;53.170;18.160;2023-11-19T06:35:44;101207.81;;;-0.53;100.00
81299;BME280;70766;53.170;18.160;2023-11-19T06:38:12;101198.79;;;-0.52;100.00
81299;BME280;70766;53.170;18.160;2023-11-19T06:40:40;101183.23;;;-0.50;100.00
81299;BME280;70766;53.170;18.160;2023-11-19T06:43:09;101169.40;;;-0.48;100.00
81299;BME280;70766;53.170;18.160;2023-11-19T06:45:37;101168.59;;;-0.47;100.00
81299;BME280;70766;53.170;18.160;2023-11-19T06:48:05;101167.52;;;-0.44;100.00
81299;BME280;70766;53.170;18.160;2023-11-19T06:50:33;101169.65;;;-0.44;100.00
81299;BME280;70766;53.170;18.160;2023-11-19T06:53:01;101169.73;;;-0.41;100.00
81299;BME280;70766;53.170;18.160;2023-11-19T06:55:32;101160.87;;;-0.40;100.00
81299;BME280;70766;53.170;18.160;2023-11-19T06:58:00;101156.55;;;-0.37;100.00
81299;BME280;70766;53.170;18.160;2023-11-19T07:00:30;101151.38;;;-0.38;100.00
81299;BME280;70766;53.170;18.160;2023-11-19T07:03:00;101147.44;;;-0.36;100.00
81299;BME280;70766;53.170;18.160;2023-11-19T07:05:29;101144.48;;;-0.32;100.00
81299;BME280;70766;53.170;18.160;2023-11-19T07:07:58;101139.17;;;-0.28;100.00
81299;BME280;70766;53.170;18.160;2023-11-19T07:10:26;101139.80;;;-0.26;100.00
81299;BME280;70766;53.170;18.160;2023-11-19T07:12:54;101134.94;;;-0.27;100.00
81299;BME280;70766;53.170;18.160;2023-11-19T07:15:22;101133.17;;;-0.25;100.00
81299;BME280;70766;53.170;18.160;2023-11-19T07:17:50;101130.63;;;-0.26;100.00
81299;BME280;70766;53.170;18.160;2023-11-19T07:20:29;101126.27;;;-0.24;100.00
81299;BME280;70766;53.170;18.160;2023-11-19T07:22:59;101123.73;;;-0.21;100.00
81299;BME280;70766;53.170;18.160;2023-11-19T07:25:27;101122.89;;;-0.20;100.00
81299;BME280;70766;53.170;18.160;2023-11-19T07:27:55;101116.61;;;-0.20;100.00
81299;BME280;70766;53.170;18.160;2023-11-19T07:30:24;101117.38;;;-0.20;100.00
81299;BME280;70766;53.170;18.160;2023-11-19T07:32:52;101117.66;;;-0.15;100.00
81299;BME280;70766;53.170;18.160;2023-11-19T07:35:21;101112.23;;;-0.15;100.00
81299;BME280;70766;53.170;18.160;2023-11-19T07:37:49;101109.38;;;-0.17;100.00
81299;BME280;70766;53.170;18.160;2023-11-19T07:40:18;101104.94;;;-0.16;100.00
81299;BME280;70766;53.170;18.160;2023-11-19T07:42:47;101099.15;;;-0.17;100.00
81299;BME280;70766;53.170;18.160;2023-11-19T07:45:17;101095.06;;;-0.14;100.00
81299;BME280;70766;53.170;18.160;2023-11-19T07:47:45;101094.07;;;-0.11;100.00
81299;BME280;70766;53.170;18.160;2023-11-19T07:50:13;101088.56;;;-0.07;100.00
81299;BME280;70766;53.170;18.160;2023-11-19T07:52:44;101086.84;;;-0.06;100.00
81299;BME280;70766;53.170;18.160;2023-11-19T07:55:13;101082.76;;;-0.05;100.00
81299;BME280;70766;53.170;18.160;2023-11-19T07:57:41;101079.42;;;-0.06;100.00
81299;BME280;70766;53.170;18.160;2023-11-19T08:00:10;101074.13;;;-0.02;100.00
81299;BME280;70766;53.170;18.160;2023-11-19T08:02:42;101070.09;;;0.02;100.00
81299;BME280;70766;53.170;18.160;2023-11-19T08:05:11;101062.72;;;0.06;100.00
81299;BME280;70766;53.170;18.160;2023-11-19T08:07:40;101062.20;;;0.07;100.00
81299;BME280;70766;53.170;18.160;2023-11-19T08:10:08;101054.70;;;0.08;100.00
81299;BME280;70766;53.170;18.160;2023-11-19T08:12:39;101048.05;;;0.15;100.00
81299;BME280;70766;53.170;18.160;2023-11-19T08:15:07;101043.76;;;0.12;100.00
81299;BME280;70766;53.170;18.160;2023-11-19T08:17:36;101038.16;;;0.17;100.00
81299;BME280;70766;53.170;18.160;2023-11-19T08:20:05;101031.16;;;0.17;100.00
81299;BME280;70766;53.170;18.160;2023-11-19T08:22:38;101025.90;;;0.18;100.00
81299;BME280;70766;53.170;18.160;2023-11-19T08:25:07;101020.05;;;0.26;100.00
81299;BME280;70766;53.170;18.160;2023-11-19T08:27:36;101013.04;;;0.31;100.00
81299;BME280;70766;53.170;18.160;2023-11-19T08:30:05;101007.43;;;0.27;100.00
81299;BME280;70766;53.170;18.160;2023-11-19T08:32:34;101000.49;;;0.38;100.00
81299;BME280;70766;53.170;18.160;2023-11-19T08:35:02;100993.06;;;0.42;100.00
81299;BME280;70766;53.170;18.160;2023-11-19T08:37:32;100993.95;;;0.45;100.00
81299;BME280;70766;53.170;18.160;2023-11-19T08:40:01;100995.86;;;0.45;100.00
81299;BME280;70766;53.170;18.160;2023-11-19T08:42:29;100988.04;;;0.50;100.00
81299;BME280;70766;53.170;18.160;2023-11-19T08:44:57;100984.66;;;0.53;100.00
81299;BME280;70766;53.170;18.160;2023-11-19T08:47:25;100979.56;;;0.55;100.00
81299;BME280;70766;53.170;18.160;2023-11-19T08:49:54;100978.77;;;0.58;100.00
81299;BME280;70766;53.170;18.160;2023-11-19T08:52:25;100974.05;;;0.57;100.00
81299;BME280;70766;53.170;18.160;2023-11-19T08:54:53;100966.02;;;0.55;100.00
81299;BME280;70766;53.170;18.160;2023-11-19T08:57:22;100960.58;;;0.53;100.00
81299;BME280;70766;53.170;18.160;2023-11-19T08:59:49;100953.84;;;0.54;100.00
81299;BME280;70766;53.170;18.160;2023-11-19T09:02:18;100941.19;;;0.62;100.00
81299;BME280;70766;53.170;18.160;2023-11-19T09:04:46;100945.60;;;0.56;100.00
81299;BME280;70766;53.170;18.160;2023-11-19T09:07:23;100938.10;;;0.61;100.00
81299;BME280;70766;53.170;18.160;2023-11-19T09:09:52;100933.75;;;0.62;100.00
81299;BME280;70766;53.170;18.160;2023-11-19T09:12:20;100934.67;;;0.60;100.00
81299;BME280;70766;53.170;18.160;2023-11-19T09:14:48;100932.09;;;0.66;100.00
81299;BME280;70766;53.170;18.160;2023-11-19T09:17:17;100925.99;;;0.74;100.00
81299;BME280;70766;53.170;18.160;2023-11-19T09:19:46;100924.75;;;0.84;100.00
81299;BME280;70766;53.170;18.160;2023-11-19T09:22:14;100921.09;;;0.91;100.00
81299;BME280;70766;53.170;18.160;2023-11-19T09:24:42;100914.34;;;1.03;100.00
81299;BME280;70766;53.170;18.160;2023-11-19T09:27:13;100904.48;;;1.12;100.00
81299;BME280;70766;53.170;18.160;2023-11-19T09:29:41;100903.93;;;1.04;100.00
81299;BME280;70766;53.170;18.160;2023-11-19T09:32:11;100898.00;;;1.02;100.00
81299;BME280;70766;53.170;18.160;2023-11-19T09:34:47;100894.54;;;1.08;100.00
81299;BME280;70766;53.170;18.160;2023-11-19T09:37:24;100890.65;;;1.15;100.00
81299;BME280;70766;53.170;18.160;2023-11-19T09:39:52;100885.92;;;1.18;100.00
81299;BME280;70766;53.170;18.160;2023-11-19T09:42:21;100879.69;;;1.20;100.00
81299;BME280;70766;53.170;18.160;2023-11-19T09:44:49;100876.88;;;1.28;100.00
81299;BME280;70766;53.170;18.160;2023-11-19T09:47:19;100866.70;;;1.36;100.00
81299;BME280;70766;53.170;18.160;2023-11-19T09:49:49;100858.77;;;1.34;100.00
81299;BME280;70766;53.170;18.160;2023-11-19T09:52:17;100847.92;;;1.26;100.00
81299;BME280;70766;53.170;18.160;2023-11-19T09:54:46;100839.56;;;1.25;100.00
81299;BME280;70766;53.170;18.160;2023-11-19T09:57:15;100834.20;;;1.28;100.00
81299;BME280;70766;53.170;18.160;2023-11-19T09:59:46;100831.60;;;1.28;100.00
81299;BME280;70766;53.170;18.160;2023-11-19T10:02:23;100822.36;;;1.40;100.00
81299;BME280;70766;53.170;18.160;2023-11-19T10:04:53;100816.77;;;1.41;100.00
81299;BME280;70766;53.170;18.160;2023-11-19T10:07:22;100811.58;;;1.42;100.00
81299;BME280;70766;53.170;18.160;2023-11-19T10:09:54;100812.16;;;1.35;100.00
81299;BME280;70766;53.170;18.160;2023-11-19T10:12:22;100808.94;;;1.40;100.00
81299;BME280;70766;53.170;18.160;2023-11-19T10:14:50;100806.29;;;1.34;100.00
81299;BME280;70766;53.170;18.160;2023-11-19T10:17:19;100803.73;;;1.24;100.00
81299;BME280;70766;53.170;18.160;2023-11-19T10:19:50;100796.33;;;1.20;100.00
81299;BME280;70766;53.170;18.160;2023-11-19T10:22:18;100786.79;;;1.20;100.00
81299;BME280;70766;53.170;18.160;2023-11-19T10:24:47;100777.72;;;1.23;100.00
81299;BME280;70766;53.170;18.160;2023-11-19T10:27:26;100773.42;;;1.17;100.00
81299;BME280;70766;53.170;18.160;2023-11-19T10:29:59;100767.52;;;1.15;100.00
81299;BME280;70766;53.170;18.160;2023-11-19T10:32:29;100761.13;;;1.13;100.00
81299;BME280;70766;53.170;18.160;2023-11-19T10:35:07;100759.27;;;1.16;100.00
81299;BME280;70766;53.170;18.160;2023-11-19T10:37:39;100757.92;;;1.10;100.00
81299;BME280;70766;53.170;18.160;2023-11-19T10:40:11;100753.23;;;1.13;100.00
81299;BME280;70766;53.170;18.160;2023-11-19T10:42:41;100753.20;;;1.12;100.00
81299;BME280;70766;53.170;18.160;2023-11-19T10:45:22;100749.30;;;1.09;100.00
81299;BME280;70766;53.170;18.160;2023-11-19T10:51:36;100740.80;;;1.09;100.00
81299;BME280;70766;53.170;18.160;2023-11-19T10:54:11;100738.08;;;1.16;100.00
81299;BME280;70766;53.170;18.160;2023-11-19T11:00:20;100735.09;;;1.07;100.00
81299;BME280;70766;53.170;18.160;2023-11-19T11:02:59;100729.21;;;1.10;100.00
81299;BME280;70766;53.170;18.160;2023-11-19T11:05:32;100724.52;;;1.02;100.00
81299;BME280;70766;53.170;18.160;2023-11-19T11:08:04;100719.95;;;0.95;100.00
81299;BME280;70766;53.170;18.160;2023-11-19T11:10:55;100717.08;;;0.96;100.00
81299;BME280;70766;53.170;18.160;2023-11-19T11:13:27;100709.21;;;0.90;100.00
81299;BME280;70766;53.170;18.160;2023-11-19T11:15:59;100705.15;;;0.89;100.00
81299;BME280;70766;53.170;18.160;2023-11-19T11:18:29;100698.48;;;0.93;100.00
81299;BME280;70766;53.170;18.160;2023-11-19T11:21:05;100695.20;;;0.88;100.00
81299;BME280;70766;53.170;18.160;2023-11-19T11:24:00;100689.86;;;0.85;100.00
81299;BME280;70766;53.170;18.160;2023-11-19T11:29:26;100672.75;;;0.79;100.00
81299;BME280;70766;53.170;18.160;2023-11-19T11:32:18;100665.20;;;0.74;100.00
81299;BME280;70766;53.170;18.160;2023-11-19T11:35:09;100653.95;;;0.72;100.00
81299;BME280;70766;53.170;18.160;2023-11-19T11:37:46;100653.23;;;0.69;100.00
81299;BME280;70766;53.170;18.160;2023-11-19T11:40:16;100648.13;;;0.61;100.00
81299;BME280;70766;53.170;18.160;2023-11-19T11:42:46;100639.64;;;0.55;100.00
81299;BME280;70766;53.170;18.160;2023-11-19T11:45:15;100633.11;;;0.50;100.00
81299;BME280;70766;53.170;18.160;2023-11-19T11:50:23;100615.79;;;0.38;100.00
81299;BME280;70766;53.170;18.160;2023-11-19T11:55:37;100597.89;;;0.29;100.00
81299;BME280;70766;53.170;18.160;2023-11-19T11:58:20;100596.23;;;0.25;100.00
81299;BME280;70766;53.170;18.160;2023-11-19T12:00:51;100597.21;;;0.23;100.00
81299;BME280;70766;53.170;18.160;2023-11-19T12:03:21;100592.23;;;0.21;100.00
81299;BME280;70766;53.170;18.160;2023-11-19T12:05:50;100592.13;;;0.19;100.00
81299;BME280;70766;53.170;18.160;2023-11-19T12:08:23;100587.04;;;0.14;100.00
81299;BME280;70766;53.170;18.160;2023-11-19T12:10:57;100582.91;;;0.13;100.00
81299;BME280;70766;53.170;18.160;2023-11-19T12:14:07;100576.98;;;0.14;100.00
81299;BME280;70766;53.170;18.160;2023-11-19T12:16:40;100567.38;;;0.12;100.00
81299;BME280;70766;53.170;18.160;2023-11-19T12:19:10;100565.30;;;0.12;100.00
81299;BME280;70766;53.170;18.160;2023-11-19T12:21:41;100557.30;;;0.13;100.00
81299;BME280;70766;53.170;18.160;2023-11-19T12:24:10;100543.10;;;0.10;100.00
81299;BME280;70766;53.170;18.160;2023-11-19T12:26:54;100531.73;;;0.12;100.00
81299;BME280;70766;53.170;18.160;2023-11-19T12:29:52;100530.83;;;0.09;100.00
81299;BME280;70766;53.170;18.160;2023-11-19T12:32:40;100524.73;;;0.06;100.00
81299;BME280;70766;53.170;18.160;2023-11-19T12:35:13;100517.80;;;0.07;100.00
81299;BME280;70766;53.170;18.160;2023-11-19T12:37:50;100511.17;;;0.05;100.00
81299;BME280;70766;53.170;18.160;2023-11-19T12:40:25;100516.13;;;0.08;100.00
81299;BME280;70766;53.170;18.160;2023-11-19T12:42:59;100511.77;;;0.07;100.00
81299;BME280;70766;53.170;18.160;2023-11-19T12:45:45;100505.30;;;0.07;100.00
81299;BME280;70766;53.170;18.160;2023-11-19T12:48:33;100500.87;;;0.06;100.00
81299;BME280;70766;53.170;18.160;2023-11-19T12:51:22;100505.23;;;0.08;100.00
81299;BME280;70766;53.170;18.160;2023-11-19T12:53:58;100514.27;;;0.07;100.00
81299;BME280;70766;53.170;18.160;2023-11-19T12:56:29;100519.41;;;0.05;100.00
81299;BME280;70766;53.170;18.160;2023-11-19T12:59:12;100520.66;;;0.03;100.00
81299;BME280;70766;53.170;18.160;2023-11-19T13:01:41;100522.72;;;0.05;100.00
81299;BME280;70766;53.170;18.160;2023-11-19T13:04:19;100511.90;;;0.03;100.00
81299;BME280;70766;53.170;18.160;2023-11-19T13:06:54;100511.96;;;0.04;100.00